Time;durP1;ratioP1;P1;durP2;ratioP2;P2;SDS_P1;SDS_P2;PMS_P1;PMS_P2;Temp;Humidity;BMP_temperature;BMP_pressure;BME280_temperature;BME280_humidity;BME280_pressure;Samples;Min_cycle;Max_cycle;Signal;HPM_P1;HPM_P2
2021/10/09 00:01:48;;;;;;;38.08;24.88;;;12.00;99.90;;;;;;5034275;28;20457;-86
2021/10/09 00:04:14;;;;;;;39.28;25.00;;;11.90;99.90;;;;;;5034299;28;20026;-86
2021/10/09 00:06:41;;;;;;;36.53;24.60;;;11.90;99.90;;;;;;5033719;28;20565;-86
2021/10/09 00:09:06;;;;;;;38.45;25.73;;;11.90;99.90;;;;;;5034253;28;20025;-85
2021/10/09 00:11:38;;;;;;;39.97;25.63;;;11.80;99.90;;;;;;5050031;28;20033;-86
2021/10/09 00:14:10;;;;;;;35.65;24.10;;;11.90;99.90;;;;;;5034722;28;20470;-86
2021/10/09 00:16:37;;;;;;;36.95;23.10;;;11.80;99.90;;;;;;5034865;28;20029;-86
2021/10/09 00:19:03;;;;;;;37.22;23.63;;;11.80;99.90;;;;;;5032706;28;20040;-86
2021/10/09 00:21:29;;;;;;;36.33;24.67;;;11.80;99.90;;;;;;5032923;28;20587;-86
2021/10/09 00:23:55;;;;;;;36.73;24.00;;;11.80;99.90;;;;;;5033342;28;20025;-85
2021/10/09 00:26:20;;;;;;;37.83;23.87;;;11.70;99.90;;;;;;5033332;28;20031;-87
2021/10/09 00:28:46;;;;;;;38.08;24.10;;;11.70;99.90;;;;;;5033068;28;20026;-86
2021/10/09 00:31:12;;;;;;;37.07;24.70;;;11.70;99.90;;;;;;5032541;28;20036;-86
2021/10/09 00:33:38;;;;;;;37.63;25.30;;;11.60;99.90;;;;;;5034360;28;20474;-86
2021/10/09 00:36:04;;;;;;;35.70;24.40;;;11.50;99.90;;;;;;5033119;28;20021;-86
2021/10/09 00:38:29;;;;;;;38.20;24.83;;;11.50;99.90;;;;;;5033132;28;20478;-86
2021/10/09 00:40:55;;;;;;;36.47;25.43;;;11.50;99.90;;;;;;5049032;28;20120;-86
2021/10/09 00:43:21;;;;;;;36.33;24.83;;;11.50;99.90;;;;;;5032689;28;20029;-87
2021/10/09 00:45:55;;;;;;;38.37;24.90;;;11.40;99.90;;;;;;5049646;28;20057;-86
2021/10/09 00:48:21;;;;;;;35.77;23.43;;;11.40;99.90;;;;;;5032989;28;20032;-87
2021/10/09 00:50:47;;;;;;;40.27;25.20;;;11.50;99.90;;;;;;5032171;28;20022;-86
2021/10/09 00:53:13;;;;;;;34.40;23.17;;;11.50;99.90;;;;;;5032708;28;20033;-86
2021/10/09 00:55:42;;;;;;;37.10;24.23;;;11.50;99.90;;;;;;5032801;28;20080;-87
2021/10/09 00:58:08;;;;;;;38.55;24.77;;;11.50;99.90;;;;;;5032847;28;20363;-86
2021/10/09 01:00:36;;;;;;;36.67;25.03;;;11.50;99.90;;;;;;5032070;28;20021;-86
2021/10/09 01:03:04;;;;;;;36.90;24.63;;;11.40;99.90;;;;;;5032502;28;20033;-87
2021/10/09 01:05:31;;;;;;;38.17;25.13;;;11.50;99.90;;;;;;5032620;28;20022;-85
2021/10/09 01:07:57;;;;;;;41.00;26.63;;;11.50;99.90;;;;;;5049095;28;20808;-86
2021/10/09 01:10:23;;;;;;;39.40;25.50;;;11.50;99.90;;;;;;5033190;28;20104;-86
2021/10/09 01:12:49;;;;;;;38.37;25.03;;;11.50;99.90;;;;;;5049078;28;20390;-86
2021/10/09 01:15:24;;;;;;;35.97;25.03;;;11.50;99.90;;;;;;5032541;28;20026;-87
2021/10/09 01:17:50;;;;;;;38.37;25.07;;;11.50;99.90;;;;;;5032271;28;20053;-86
2021/10/09 01:20:16;;;;;;;40.83;26.47;;;11.50;99.90;;;;;;5033296;28;20048;-86
2021/10/09 01:22:42;;;;;;;38.80;24.00;;;11.50;99.90;;;;;;5033360;28;20486;-85
2021/10/09 01:25:09;;;;;;;39.73;26.07;;;11.50;99.90;;;;;;5034058;28;20026;-86
2021/10/09 01:27:38;;;;;;;38.53;24.90;;;11.50;99.90;;;;;;5032117;28;20036;-86
2021/10/09 01:30:04;;;;;;;37.88;23.35;;;11.40;99.90;;;;;;5031594;28;20540;-86
2021/10/09 01:32:30;;;;;;;35.07;23.33;;;11.40;99.90;;;;;;5031807;28;20088;-86
2021/10/09 01:34:55;;;;;;;34.47;23.10;;;11.30;99.90;;;;;;5032050;28;20065;-86
2021/10/09 01:37:21;;;;;;;37.37;23.60;;;11.30;99.90;;;;;;5031968;28;20068;-85
2021/10/09 01:39:48;;;;;;;40.40;25.73;;;11.30;99.90;;;;;;5032709;28;20060;-86
2021/10/09 01:42:14;;;;;;;38.63;24.30;;;11.40;99.90;;;;;;5031827;28;20082;-86
2021/10/09 01:44:41;;;;;;;40.27;26.60;;;11.40;99.90;;;;;;5033373;28;20033;-86
2021/10/09 01:47:06;;;;;;;41.60;26.70;;;11.40;99.90;;;;;;5031749;28;20371;-85
2021/10/09 01:49:32;;;;;;;41.57;26.33;;;11.40;99.90;;;;;;5031213;28;20171;-86
2021/10/09 01:51:58;;;;;;;41.93;26.33;;;11.30;99.90;;;;;;5032644;28;20479;-86
2021/10/09 01:54:24;;;;;;;42.47;26.90;;;11.30;99.90;;;;;;5048281;28;20021;-86
2021/10/09 01:56:49;;;;;;;40.30;26.33;;;11.30;99.90;;;;;;5032911;28;20021;-86
2021/10/09 01:59:15;;;;;;;39.73;25.00;;;11.30;99.90;;;;;;5031960;28;20104;-86
2021/10/09 02:01:41;;;;;;;37.47;24.40;;;11.30;99.90;;;;;;5047905;28;20021;-87
2021/10/09 02:04:07;;;;;;;35.60;23.57;;;11.30;99.90;;;;;;5031431;28;20053;-85
2021/10/09 02:06:33;;;;;;;37.43;24.67;;;11.30;99.90;;;;;;5048164;28;20052;-86
2021/10/09 02:08:59;;;;;;;40.33;26.03;;;11.30;99.90;;;;;;5031209;28;20032;-85
2021/10/09 02:11:34;;;;;;;40.80;25.43;;;11.30;99.90;;;;;;5032778;28;20105;-85
2021/10/09 02:14:16;;;;;;;40.03;25.13;;;11.30;99.90;;;;;;5047979;28;20398;-86
2021/10/09 02:27:16;;;;;;;36.63;23.50;;;11.20;99.90;;;;;;5032810;28;20025;-86
2021/10/09 02:29:41;;;;;;;39.70;25.23;;;11.20;99.90;;;;;;5046455;28;20053;-87
2021/10/09 02:32:07;;;;;;;37.30;22.93;;;11.20;99.90;;;;;;5030875;28;20060;-86
2021/10/09 02:34:33;;;;;;;38.23;24.73;;;11.20;99.90;;;;;;5032260;28;20394;-86
2021/10/09 02:36:58;;;;;;;37.00;23.90;;;11.10;99.90;;;;;;5047645;28;20030;-86
2021/10/09 02:39:24;;;;;;;38.07;24.67;;;11.00;99.90;;;;;;5030456;28;20030;-87
2021/10/09 02:41:52;;;;;;;38.73;24.63;;;11.00;99.90;;;;;;5030980;28;20029;-86
2021/10/09 02:44:18;;;;;;;48.80;26.47;;;11.00;99.90;;;;;;5047469;28;20035;-86
2021/10/09 02:46:43;;;;;;;38.57;24.33;;;10.90;99.90;;;;;;5030806;28;20029;-86
2021/10/09 02:49:09;;;;;;;36.33;22.97;;;10.90;99.90;;;;;;5030499;28;20068;-86
2021/10/09 02:51:34;;;;;;;37.63;24.60;;;10.90;99.90;;;;;;5030885;28;20030;-86
2021/10/09 02:54:00;;;;;;;36.07;23.20;;;10.80;99.90;;;;;;5032264;28;20033;-86
2021/10/09 02:56:26;;;;;;;35.20;23.47;;;10.80;99.90;;;;;;5047370;28;20394;-86
2021/10/09 02:58:51;;;;;;;39.60;24.93;;;10.90;99.90;;;;;;5031943;28;20033;-86
2021/10/09 03:01:17;;;;;;;41.40;25.57;;;10.90;99.90;;;;;;5030603;28;20025;-85
2021/10/09 03:03:42;;;;;;;39.87;24.67;;;10.90;99.90;;;;;;5032009;28;20044;-86
2021/10/09 03:06:08;;;;;;;42.10;25.27;;;10.90;99.90;;;;;;5047316;28;20029;-86
2021/10/09 03:08:34;;;;;;;37.97;24.33;;;10.80;99.90;;;;;;5030769;28;20441;-86
2021/10/09 03:10:59;;;;;;;38.43;24.87;;;10.90;99.90;;;;;;5030870;28;20069;-85
2021/10/09 03:13:25;;;;;;;41.13;25.07;;;10.70;99.90;;;;;;5034745;28;20037;-86
2021/10/09 03:15:50;;;;;;;37.60;24.10;;;10.80;99.90;;;;;;5034849;28;20061;-86
2021/10/09 03:18:16;;;;;;;37.93;24.73;;;10.80;99.90;;;;;;5035992;28;20021;-86
2021/10/09 03:20:43;;;;;;;38.53;24.33;;;10.80;99.90;;;;;;5034148;28;20128;-86
2021/10/09 03:23:09;;;;;;;36.53;22.83;;;10.80;99.90;;;;;;5034576;28;20057;-85
2021/10/09 03:25:34;;;;;;;38.90;24.20;;;10.80;99.90;;;;;;5034802;28;20120;-86
2021/10/09 03:28:00;;;;;;;38.20;24.77;;;10.70;99.90;;;;;;5034682;28;20056;-85
2021/10/09 03:30:25;;;;;;;35.20;24.23;;;10.70;99.90;;;;;;5034130;28;20029;-86
2021/10/09 03:32:51;;;;;;;38.07;24.40;;;10.70;99.90;;;;;;5051751;28;20121;-86
2021/10/09 03:35:17;;;;;;;38.57;24.67;;;10.70;99.90;;;;;;5035360;28;20028;-85
2021/10/09 03:37:43;;;;;;;44.80;25.60;;;10.60;99.90;;;;;;5036049;28;20489;-86
2021/10/09 03:40:12;;;;;;;44.50;25.40;;;10.60;99.90;;;;;;5035633;28;20021;-86
2021/10/09 03:50:17;;;;;;;42.73;25.23;;;10.50;99.90;;;;;;5036052;28;20497;-86
2021/10/09 03:52:43;;;;;;;41.47;25.50;;;10.60;99.90;;;;;;5035168;28;20085;-85
2021/10/09 03:55:11;;;;;;;38.40;23.33;;;10.60;99.90;;;;;;5035327;28;20172;-85
2021/10/09 03:57:37;;;;;;;39.42;25.15;;;10.60;99.90;;;;;;5035137;28;20026;-86
2021/10/09 04:00:05;;;;;;;41.90;25.87;;;10.60;99.90;;;;;;5034176;28;20170;-85
2021/10/09 04:02:31;;;;;;;38.53;23.97;;;10.60;99.90;;;;;;5034416;28;20028;-85
2021/10/09 04:04:57;;;;;;;41.27;25.00;;;10.50;99.90;;;;;;5036108;28;20025;-86
2021/10/09 04:07:22;;;;;;;43.43;26.77;;;10.60;99.90;;;;;;5034717;28;20127;-86
2021/10/09 04:09:48;;;;;;;39.73;25.40;;;10.50;99.90;;;;;;5035450;28;20099;-87
2021/10/09 04:12:13;;;;;;;39.37;24.97;;;10.60;99.90;;;;;;5034653;28;20029;-85
2021/10/09 04:14:40;;;;;;;42.63;25.80;;;10.60;99.90;;;;;;5035925;28;20029;-86
2021/10/09 04:17:06;;;;;;;44.63;26.17;;;10.50;99.90;;;;;;5035154;28;20021;-85
2021/10/09 04:19:31;;;;;;;40.70;25.93;;;10.50;99.90;;;;;;5050137;28;20533;-85
2021/10/09 04:21:57;;;;;;;39.30;24.77;;;10.50;99.90;;;;;;5034473;28;20025;-86
2021/10/09 04:24:23;;;;;;;40.03;25.03;;;10.50;99.90;;;;;;5033945;28;20029;-86
2021/10/09 04:26:48;;;;;;;45.87;25.43;;;10.50;99.90;;;;;;5034928;28;20071;-86
2021/10/09 04:29:14;;;;;;;41.60;25.80;;;10.50;99.90;;;;;;5033139;28;20032;-86
2021/10/09 04:31:39;;;;;;;42.00;25.80;;;10.40;99.90;;;;;;5033395;28;20026;-85
2021/10/09 04:34:05;;;;;;;42.37;26.33;;;10.50;99.90;;;;;;5034831;28;20026;-86
2021/10/09 04:36:31;;;;;;;42.23;26.30;;;10.40;99.90;;;;;;5033560;28;20112;-86
2021/10/09 04:38:56;;;;;;;39.47;25.80;;;10.50;99.90;;;;;;5034251;28;20444;-86
2021/10/09 04:41:22;;;;;;;42.63;26.07;;;10.50;99.90;;;;;;5034489;28;20021;-86
2021/10/09 04:43:47;;;;;;;44.27;26.23;;;10.40;99.90;;;;;;5035288;28;20471;-85
2021/10/09 04:46:13;;;;;;;38.70;25.97;;;10.40;99.90;;;;;;5050175;28;20033;-86
2021/10/09 04:48:38;;;;;;;43.53;26.67;;;10.40;99.90;;;;;;5033367;28;20033;-85
2021/10/09 04:51:04;;;;;;;42.70;26.10;;;10.40;99.90;;;;;;5032784;28;20053;-86
2021/10/09 04:53:30;;;;;;;42.73;26.37;;;10.40;99.90;;;;;;5049698;28;20549;-85
2021/10/09 04:55:55;;;;;;;44.77;26.67;;;10.30;99.90;;;;;;5049812;28;20036;-86
2021/10/09 04:58:21;;;;;;;43.97;25.73;;;10.30;99.90;;;;;;5034515;28;20029;-86
2021/10/09 05:00:48;;;;;;;42.83;26.57;;;10.30;99.90;;;;;;5034305;28;20072;-86
2021/10/09 05:03:15;;;;;;;42.70;26.00;;;10.30;99.90;;;;;;5034306;28;20466;-86
2021/10/09 05:05:42;;;;;;;46.37;27.10;;;10.30;99.90;;;;;;5033398;28;20129;-86
2021/10/09 05:08:08;;;;;;;45.33;27.70;;;10.40;99.90;;;;;;5033378;28;20035;-86
2021/10/09 05:10:34;;;;;;;47.60;28.23;;;10.30;99.90;;;;;;5033147;28;20124;-85
2021/10/09 05:13:00;;;;;;;45.03;26.97;;;10.30;99.90;;;;;;5033259;28;20033;-86
2021/10/09 05:15:26;;;;;;;43.60;27.40;;;10.30;99.90;;;;;;5033322;28;20032;-86
2021/10/09 05:17:51;;;;;;;44.03;26.70;;;10.30;99.90;;;;;;5034830;28;20057;-86
2021/10/09 05:20:18;;;;;;;47.77;27.53;;;10.30;99.90;;;;;;5034877;28;20110;-86
2021/10/09 05:22:44;;;;;;;43.97;27.87;;;10.20;99.90;;;;;;5033640;28;20034;-86
2021/10/09 05:25:10;;;;;;;42.17;26.03;;;10.20;99.90;;;;;;5032875;28;20029;-87
2021/10/09 05:27:37;;;;;;;45.23;28.17;;;10.20;99.90;;;;;;5032758;28;20116;-87
2021/10/09 05:30:10;;;;;;;44.03;27.27;;;10.30;99.90;;;;;;5032037;28;20025;-86
2021/10/09 05:32:46;;;;;;;43.97;26.33;;;10.20;99.90;;;;;;5032432;28;20030;-86
2021/10/09 05:35:11;;;;;;;49.13;27.40;;;10.20;99.90;;;;;;5048452;28;20030;-85
2021/10/09 05:37:37;;;;;;;43.87;26.90;;;10.20;99.90;;;;;;5032668;28;20025;-85
2021/10/09 05:40:03;;;;;;;45.20;27.30;;;10.20;99.90;;;;;;5032279;28;20025;-86
2021/10/09 05:42:29;;;;;;;41.37;26.47;;;10.20;99.90;;;;;;5033248;28;20025;-87
2021/10/09 05:44:56;;;;;;;45.27;26.27;;;10.20;99.90;;;;;;5032233;28;20120;-86
2021/10/09 05:47:22;;;;;;;45.73;28.07;;;10.20;99.90;;;;;;5033351;28;20028;-85
2021/10/09 05:49:52;;;;;;;47.90;28.17;;;10.20;99.90;;;;;;5031490;28;20026;-86
2021/10/09 05:52:25;;;;;;;45.33;26.43;;;10.10;99.90;;;;;;5033592;28;20441;-86
2021/10/09 05:55:11;;;;;;;49.97;29.37;;;10.10;99.90;;;;;;5032047;28;20113;-85
2021/10/09 05:57:59;;;;;;;45.60;26.53;;;10.10;99.90;;;;;;5032153;28;20112;-86
2021/10/09 06:44:17;;;;;;;46.73;28.10;;;10.30;99.90;;;;;;5032645;28;20036;-86
2021/10/09 06:47:11;;;;;;;46.53;28.63;;;10.20;99.90;;;;;;5047554;28;20028;-86
2021/10/09 07:00:38;;;;;;;50.27;29.17;;;10.30;99.90;;;;;;5031812;28;20079;-87
2021/10/09 07:03:04;;;;;;;44.40;27.27;;;10.30;99.90;;;;;;5047468;28;20081;-87
2021/10/09 07:05:32;;;;;;;48.50;29.67;;;10.30;99.90;;;;;;5032143;28;20097;-87
2021/10/09 07:08:05;;;;;;;50.80;31.35;;;10.30;99.90;;;;;;5030603;28;20549;-86
2021/10/09 07:10:30;;;;;;;48.07;29.27;;;10.30;99.90;;;;;;5031643;28;20025;-87
2021/10/09 07:12:56;;;;;;;54.43;30.60;;;10.40;99.90;;;;;;5032340;28;20033;-86
2021/10/09 07:15:22;;;;;;;56.63;32.07;;;10.30;99.90;;;;;;5031856;28;20030;-87
2021/10/09 07:17:47;;;;;;;49.13;30.13;;;10.40;99.90;;;;;;5031818;28;20022;-87
2021/10/09 07:20:13;;;;;;;50.17;30.33;;;10.40;99.90;;;;;;5029925;28;20143;-87
2021/10/09 07:22:39;;;;;;;52.77;31.67;;;10.50;99.90;;;;;;5031004;28;20029;-86
2021/10/09 07:25:06;;;;;;;51.30;31.00;;;10.50;99.90;;;;;;5030713;28;20095;-86
2021/10/09 07:27:32;;;;;;;52.00;30.43;;;10.50;99.90;;;;;;5031822;28;20398;-86
2021/10/09 07:29:57;;;;;;;52.40;30.50;;;10.50;99.90;;;;;;5031808;28;20022;-86
2021/10/09 07:32:24;;;;;;;48.73;30.30;;;10.60;99.90;;;;;;5046719;28;20053;-86
2021/10/09 07:34:50;;;;;;;49.33;30.23;;;10.60;99.90;;;;;;5031674;28;20109;-86
2021/10/09 07:37:16;;;;;;;49.70;29.63;;;10.70;99.90;;;;;;5030632;28;20124;-86
2021/10/09 07:39:41;;;;;;;47.90;29.17;;;10.70;99.90;;;;;;5030183;28;20021;-86
2021/10/09 07:42:07;;;;;;;53.40;29.90;;;10.70;99.90;;;;;;5030283;28;20017;-86
2021/10/09 07:44:33;;;;;;;51.03;30.30;;;10.80;99.90;;;;;;5046964;28;20037;-86
2021/10/09 07:46:58;;;;;;;52.77;29.37;;;10.80;99.90;;;;;;5030986;28;20025;-86
2021/10/09 07:49:24;;;;;;;51.93;30.57;;;10.80;99.90;;;;;;5029806;28;20030;-86
2021/10/09 07:51:50;;;;;;;53.37;29.80;;;10.80;99.90;;;;;;5030329;28;20025;-86
2021/10/09 07:54:15;;;;;;;45.33;27.97;;;10.90;99.90;;;;;;5030647;28;20036;-86
2021/10/09 07:56:41;;;;;;;43.77;27.27;;;10.90;99.90;;;;;;5031767;28;20502;-86
2021/10/09 07:59:06;;;;;;;47.37;27.90;;;10.90;99.90;;;;;;5035058;28;20022;-86
2021/10/09 08:01:32;;;;;;;48.43;29.33;;;11.00;99.90;;;;;;5034258;28;20025;-86
2021/10/09 08:03:59;;;;;;;49.87;29.60;;;11.00;99.90;;;;;;5034014;28;20444;-86
2021/10/09 08:06:25;;;;;;;44.63;26.10;;;11.00;99.90;;;;;;5034218;28;20394;-86
2021/10/09 08:08:51;;;;;;;46.13;27.73;;;11.00;99.90;;;;;;5034011;28;20017;-86
2021/10/09 08:11:17;;;;;;;46.83;27.83;;;11.10;99.90;;;;;;5034862;28;20113;-86
2021/10/09 08:13:43;;;;;;;42.03;27.27;;;11.10;99.90;;;;;;5033827;28;20120;-86
2021/10/09 08:16:09;;;;;;;45.67;26.80;;;11.20;99.90;;;;;;5035251;28;20026;-86
2021/10/09 08:18:35;;;;;;;43.27;26.20;;;11.20;99.90;;;;;;5033996;28;20048;-86
2021/10/09 08:21:03;;;;;;;48.23;27.43;;;11.20;99.90;;;;;;5049916;28;20017;-86
2021/10/09 08:23:43;;;;;;;41.87;26.47;;;11.20;99.90;;;;;;5050619;28;20082;-86
2021/10/09 08:39:40;;;;;;;43.83;26.53;;;11.40;99.90;;;;;;5034584;28;20482;-86
2021/10/09 08:42:06;;;;;;;43.23;24.80;;;11.50;99.90;;;;;;5049832;28;20025;-86
2021/10/09 08:44:31;;;;;;;35.93;23.30;;;11.50;99.90;;;;;;5049747;28;20112;-86
2021/10/09 08:46:57;;;;;;;39.57;22.00;;;11.60;99.90;;;;;;5033119;28;20036;-86
2021/10/09 08:49:25;;;;;;;35.07;21.57;;;11.60;99.90;;;;;;5032855;28;20482;-86
2021/10/09 08:51:51;;;;;;;38.97;23.67;;;11.60;99.90;;;;;;5032931;28;20076;-86
2021/10/09 08:54:17;;;;;;;35.40;22.17;;;11.60;99.90;;;;;;5032932;28;20037;-86
2021/10/09 08:56:50;;;;;;;38.73;23.73;;;11.70;99.90;;;;;;5034433;28;20029;-86
2021/10/09 08:59:24;;;;;;;37.17;22.77;;;11.70;99.90;;;;;;5033657;28;20105;-86
2021/10/09 09:02:03;;;;;;;38.23;23.13;;;11.70;99.90;;;;;;5034535;28;20024;-86
2021/10/09 09:27:24;;;;;;;33.23;21.40;;;12.10;99.90;;;;;;5034491;28;20083;-86
2021/10/09 09:30:45;;;;;;;45.73;24.87;;;12.00;99.90;;;;;;5033159;28;20033;-86
2021/10/09 09:36:10;;;;;;;34.47;21.30;;;12.20;99.90;;;;;;5034191;28;20052;-86
2021/10/09 09:41:50;;;;;;;33.83;21.38;;;12.20;99.90;;;;;;5033496;28;20125;-86
2021/10/09 09:45:10;;;;;;;35.15;21.83;;;12.30;99.90;;;;;;5033325;28;20057;-86
2021/10/09 09:48:15;;;;;;;37.90;22.87;;;12.40;99.90;;;;;;4979349;28;20030;-86
2021/10/09 09:50:47;;;;;;;38.30;22.97;;;12.40;99.90;;;;;;5015116;28;20042;-86
2021/10/09 09:53:16;;;;;;;32.17;20.75;;;12.40;99.90;;;;;;5048395;28;20112;-87
2021/10/09 09:55:45;;;;;;;37.95;20.25;;;12.40;99.90;;;;;;5032195;28;20033;-87
2021/10/09 10:01:36;;;;;;;40.17;23.47;;;12.40;99.90;;;;;;5041088;28;20063;-86
2021/10/09 10:04:07;;;;;;;33.35;20.88;;;12.50;99.90;;;;;;5031695;28;20124;-86
2021/10/09 10:06:35;;;;;;;31.70;20.77;;;12.50;99.90;;;;;;5033273;28;20070;-87
2021/10/09 10:09:04;;;;;;;29.88;18.80;;;12.60;99.90;;;;;;5032336;28;20026;-86
2021/10/09 10:11:33;;;;;;;29.25;18.70;;;12.60;99.90;;;;;;5031927;28;20040;-86
2021/10/09 10:14:07;;;;;;;27.45;17.25;;;12.60;99.90;;;;;;5031761;28;20044;-86
2021/10/09 10:16:46;;;;;;;28.23;17.10;;;12.60;99.90;;;;;;5046134;28;20112;-86
2021/10/09 10:19:17;;;;;;;25.38;16.70;;;12.70;99.90;;;;;;5032320;28;20268;-86
2021/10/09 10:21:52;;;;;;;26.08;16.73;;;12.70;99.90;;;;;;5014081;28;20519;-86
2021/10/09 10:25:02;;;;;;;33.70;19.33;;;12.70;99.90;;;;;;5031558;28;20041;-86
2021/10/09 10:27:47;;;;;;;27.88;17.90;;;12.70;99.90;;;;;;4978750;28;20030;-87
2021/10/09 10:30:16;;;;;;;30.90;18.77;;;12.80;99.90;;;;;;4993033;28;20491;-86
2021/10/09 10:32:53;;;;;;;26.35;17.40;;;12.80;99.90;;;;;;5025830;28;20109;-87
2021/10/09 10:35:46;;;;;;;25.67;17.25;;;12.80;99.90;;;;;;5032003;28;20037;-87
2021/10/09 10:38:22;;;;;;;26.45;18.27;;;12.90;99.90;;;;;;5031402;28;20040;-86
2021/10/09 10:41:00;;;;;;;27.92;17.23;;;12.80;99.90;;;;;;5033237;28;20463;-86
2021/10/09 10:46:00;;;;;;;34.67;21.50;;;12.90;99.90;;;;;;5033530;28;20079;-86
2021/10/09 10:48:47;;;;;;;31.33;18.27;;;12.90;99.90;;;;;;5031755;28;20085;-87
2021/10/09 10:55:30;;;;;;;27.80;17.70;;;13.00;99.90;;;;;;5010438;28;20042;-87
2021/10/09 10:58:19;;;;;;;26.10;16.65;;;13.10;99.90;;;;;;4988547;28;20201;-87
2021/10/09 11:01:19;;;;;;;29.27;18.77;;;13.10;99.90;;;;;;5030924;28;20033;-86
2021/10/09 11:03:53;;;;;;;30.83;18.30;;;13.10;99.90;;;;;;5031346;28;20029;-87
2021/10/09 11:06:21;;;;;;;31.45;16.90;;;13.20;99.90;;;;;;5032170;28;20081;-87
2021/10/09 11:08:48;;;;;;;30.13;18.20;;;13.20;99.90;;;;;;5031268;28;20052;-86
2021/10/09 11:11:14;;;;;;;37.58;20.02;;;13.20;99.90;;;;;;5030878;28;20025;-86
2021/10/09 11:13:41;;;;;;;31.48;19.33;;;13.30;99.90;;;;;;5031147;28;20021;-86
2021/10/09 11:16:07;;;;;;;32.45;19.70;;;13.40;99.90;;;;;;5030953;28;20032;-86
2021/10/09 11:18:52;;;;;;;28.38;18.52;;;13.40;99.90;;;;;;5031322;28;20029;-86
2021/10/09 11:21:18;;;;;;;27.83;17.42;;;13.40;99.90;;;;;;5030748;28;20119;-87
2021/10/09 11:23:55;;;;;;;27.40;17.85;;;13.40;99.90;;;;;;5032660;28;20061;-87
2021/10/09 11:26:23;;;;;;;27.33;17.83;;;13.40;99.90;;;;;;5031090;28;20036;-87
2021/10/09 11:29:03;;;;;;;31.83;17.67;;;13.40;99.90;;;;;;5030871;28;20108;-86
2021/10/09 11:31:29;;;;;;;30.55;16.48;;;13.40;99.90;;;;;;5031207;28;20030;-87
2021/10/09 11:33:56;;;;;;;26.95;16.38;;;13.40;99.90;;;;;;5035816;28;20029;-86
2021/10/09 11:36:22;;;;;;;29.08;17.55;;;13.40;99.90;;;;;;5036285;28;20029;-87
2021/10/09 11:39:05;;;;;;;25.85;16.08;;;13.50;99.90;;;;;;5034682;28;20395;-87
2021/10/09 11:41:31;;;;;;;25.27;16.10;;;13.50;99.90;;;;;;5035322;28;20018;-87
2021/10/09 11:44:06;;;;;;;27.25;17.05;;;13.50;99.90;;;;;;5051656;28;20044;-87
2021/10/09 11:57:17;;;;;;;26.13;16.08;;;13.50;99.90;;;;;;5035330;28;20045;-87
2021/10/09 11:59:42;;;;;;;30.75;18.65;;;13.50;99.90;;;;;;5033264;28;20508;-87
2021/10/09 12:02:09;;;;;;;27.05;16.77;;;13.60;99.90;;;;;;5033928;28;20053;-88
2021/10/09 12:04:35;;;;;;;27.52;16.40;;;13.60;99.90;;;;;;5033713;28;20470;-86
2021/10/09 12:09:38;;;;;;;26.65;16.23;;;13.70;99.90;;;;;;5034692;28;20033;-87
2021/10/09 12:12:20;;;;;;;24.95;15.52;;;13.60;99.90;;;;;;5035142;28;20036;-86
2021/10/09 12:14:49;;;;;;;23.77;14.32;;;13.60;99.90;;;;;;5033710;28;20026;-86
2021/10/09 12:17:15;;;;;;;23.40;13.82;;;13.60;99.90;;;;;;5033682;28;20025;-86
2021/10/09 12:19:41;;;;;;;23.33;13.88;;;13.70;99.90;;;;;;5033468;28;20025;-88
2021/10/09 12:22:10;;;;;;;27.83;15.40;;;13.70;99.90;;;;;;5033442;28;20029;-87
2021/10/09 12:24:48;;;;;;;;;;;13.70;99.90;;;;;;5034065;28;20025;-87
2021/10/09 12:27:16;;;;;;;26.42;14.45;;;13.70;99.90;;;;;;5050236;28;19905;-87
2021/10/09 12:30:05;;;;;;;25.80;13.90;;;13.80;99.90;;;;;;5033100;28;20021;-87
2021/10/09 12:32:51;;;;;;;22.55;14.43;;;13.90;99.90;;;;;;5034561;28;20417;-87
2021/10/09 12:35:31;;;;;;;20.48;13.45;;;13.80;99.90;;;;;;5034663;28;20036;-86
2021/10/09 12:38:09;;;;;;;25.52;15.40;;;13.80;99.90;;;;;;5034806;28;20101;-86
2021/10/09 12:40:48;;;;;;;28.38;16.13;;;13.70;99.90;;;;;;5033014;28;20490;-86
2021/10/09 12:43:23;;;;;;;23.85;15.77;;;13.80;99.90;;;;;;5034159;28;20414;-87
2021/10/09 12:45:50;;;;;;;21.38;13.05;;;13.90;99.90;;;;;;5033161;28;20057;-87
2021/10/09 12:48:18;;;;;;;21.75;14.13;;;14.00;99.90;;;;;;5033227;28;20398;-87
2021/10/09 12:50:44;;;;;;;25.98;14.10;;;14.00;99.90;;;;;;5032796;28;20067;-87
2021/10/09 12:53:10;;;;;;;26.88;14.93;;;14.00;99.90;;;;;;5034120;28;20029;-86
2021/10/09 12:55:37;;;;;;;22.70;14.45;;;14.10;99.90;;;;;;5034520;28;20025;-86
2021/10/09 12:58:09;;;;;;;20.00;13.30;;;14.20;99.90;;;;;;5034328;28;20147;-86
2021/10/09 13:00:36;;;;;;;18.38;12.25;;;14.20;99.90;;;;;;5034097;28;20100;-87
2021/10/09 13:03:03;;;;;;;21.17;13.25;;;14.20;99.90;;;;;;5032951;28;20124;-87
2021/10/09 13:05:31;;;;;;;20.98;13.23;;;14.10;99.90;;;;;;5033218;28;20520;-87
2021/10/09 13:07:58;;;;;;;21.85;13.30;;;14.10;99.90;;;;;;5032829;28;20025;-86
2021/10/09 13:10:24;;;;;;;19.05;12.82;;;14.00;99.90;;;;;;5032521;28;20108;-86
2021/10/09 13:12:50;;;;;;;20.33;13.40;;;14.00;99.90;;;;;;5034359;28;20060;-86
2021/10/09 13:15:18;;;;;;;21.05;12.40;;;14.00;99.90;;;;;;5034590;28;20033;-86
2021/10/09 13:17:44;;;;;;;22.27;13.55;;;14.00;99.90;;;;;;5033253;28;20079;-86
2021/10/09 13:20:10;;;;;;;19.20;13.55;;;14.20;99.90;;;;;;5032343;28;20032;-86
2021/10/09 13:22:36;;;;;;;21.52;14.13;;;14.20;99.90;;;;;;5032957;28;20042;-87
2021/10/09 13:25:04;;;;;;;20.73;12.45;;;14.30;99.90;;;;;;5032763;28;20477;-86
2021/10/09 13:27:30;;;;;;;18.95;12.25;;;14.30;99.90;;;;;;5034494;28;20083;-86
2021/10/09 13:29:55;;;;;;;22.83;12.73;;;14.20;99.90;;;;;;5032811;28;20037;-86
2021/10/09 13:32:21;;;;;;;18.55;12.43;;;14.20;99.90;;;;;;5033848;28;20029;-86
2021/10/09 13:34:47;;;;;;;19.25;12.75;;;14.30;99.90;;;;;;5034291;28;20533;-87
2021/10/09 13:37:20;;;;;;;19.02;11.30;;;14.30;99.90;;;;;;5050876;28;20025;-86
2021/10/09 13:39:52;;;;;;;19.38;12.02;;;14.30;99.90;;;;;;5034967;28;20363;-86
2021/10/09 13:42:18;;;;;;;22.38;13.50;;;14.30;99.90;;;;;;5035662;28;20025;-86
2021/10/09 13:44:43;;;;;;;21.38;13.18;;;14.30;99.90;;;;;;5050378;28;20068;-86
2021/10/09 13:47:10;;;;;;;21.13;12.85;;;14.40;99.90;;;;;;5036649;28;20500;-86
2021/10/09 13:49:37;;;;;;;21.00;12.30;;;14.60;99.90;;;;;;5038026;28;20048;-86
2021/10/09 13:52:03;;;;;;;20.10;12.00;;;14.60;99.90;;;;;;5039148;28;20035;-86
2021/10/09 13:54:28;;;;;;;21.73;12.50;;;14.60;99.90;;;;;;5033301;28;20116;-86
2021/10/09 13:56:54;;;;;;;17.00;11.73;;;14.60;99.90;;;;;;5035095;28;20065;-86
2021/10/09 13:59:20;;;;;;;19.20;10.90;;;14.60;99.90;;;;;;5034375;28;20025;-86
2021/10/09 14:01:46;;;;;;;16.38;10.93;;;14.50;99.90;;;;;;5034068;28;20029;-86
2021/10/09 14:04:11;;;;;;;18.02;11.02;;;14.50;99.90;;;;;;5035219;28;20036;-88
2021/10/09 14:06:37;;;;;;;18.92;10.57;;;14.50;99.90;;;;;;5033110;28;20056;-87
2021/10/09 14:09:03;;;;;;;17.15;11.27;;;14.50;99.90;;;;;;5033000;28;20478;-86
2021/10/09 14:11:29;;;;;;;19.33;11.02;;;14.50;99.90;;;;;;5035613;28;20113;-86
2021/10/09 14:13:55;;;;;;;17.33;10.82;;;14.40;99.90;;;;;;5048162;28;20112;-87
2021/10/09 14:16:20;;;;;;;18.63;11.13;;;14.40;99.90;;;;;;5031434;28;20025;-86
2021/10/09 14:18:46;;;;;;;16.55;9.77;;;14.30;99.90;;;;;;5031877;28;20032;-87
2021/10/09 14:21:12;;;;;;;19.05;10.40;;;14.30;99.90;;;;;;5031427;28;20029;-87
2021/10/09 14:23:39;;;;;;;22.08;11.23;;;14.30;99.90;;;;;;5031751;28;20393;-87
2021/10/09 14:26:05;;;;;;;15.20;10.05;;;14.40;99.90;;;;;;5031907;28;20079;-87
2021/10/09 14:28:31;;;;;;;18.75;10.98;;;14.50;99.90;;;;;;5031654;28;20544;-87
2021/10/09 14:30:56;;;;;;;18.80;10.50;;;14.40;99.90;;;;;;5031497;28;20033;-87
2021/10/09 14:33:22;;;;;;;17.17;10.00;;;14.40;99.90;;;;;;5031989;28;20037;-86
2021/10/09 14:35:48;;;;;;;15.70;10.15;;;14.30;99.90;;;;;;5033243;28;20029;-87
2021/10/09 14:38:14;;;;;;;18.95;11.23;;;14.40;99.90;;;;;;5033443;28;20031;-87
2021/10/09 14:40:42;;;;;;;16.75;10.73;;;14.50;99.90;;;;;;5033924;28;20029;-86
2021/10/09 14:43:08;;;;;;;17.67;10.38;;;14.70;99.90;;;;;;5033372;28;20033;-87
2021/10/09 14:45:34;;;;;;;21.10;11.50;;;14.80;99.90;;;;;;5032689;28;20026;-87
2021/10/09 14:48:15;;;;;;;17.88;10.75;;;14.90;99.90;;;;;;5032488;28;20375;-87
2021/10/09 15:18:06;;;;;;;20.35;10.63;;;16.40;96.80;;;;;;5036469;28;20079;-87
2021/10/09 15:20:31;;;;;;;21.05;10.70;;;16.50;96.80;;;;;;5034968;28;20108;-87
2021/10/09 15:22:57;;;;;;;16.70;10.05;;;16.60;96.80;;;;;;5035643;28;20052;-86